Time;durP1;ratioP1;P1;durP2;ratioP2;P2;SDS_P1;SDS_P2;PMS_P1;PMS_P2;Temp;Humidity;BMP_temperature;BMP_pressure;BME280_temperature;BME280_humidity;BME280_pressure;Samples;Min_cycle;Max_cycle;Signal;HPM_P1;HPM_P2
2021/05/27 00:00:20;;;;;;;3.85;2.28;;;11.30;99.90;;;;;;5090024;28;20024;-76
2021/05/27 00:02:45;;;;;;;3.80;2.42;;;11.30;99.90;;;;;;5090689;28;20027;-75
2021/05/27 00:05:12;;;;;;;2.80;2.35;;;11.30;99.90;;;;;;5090234;28;20104;-75
2021/05/27 00:07:38;;;;;;;5.35;2.65;;;11.30;99.90;;;;;;5090809;28;20031;-75
2021/05/27 00:10:04;;;;;;;2.60;2.30;;;11.20;99.90;;;;;;5091013;28;20028;-75
2021/05/27 00:12:30;;;;;;;2.67;2.42;;;11.20;99.90;;;;;;5090037;28;20123;-75
2021/05/27 00:14:56;;;;;;;3.80;2.97;;;11.20;99.90;;;;;;5090748;28;20178;-75
2021/05/27 00:17:21;;;;;;;3.00;2.55;;;11.10;99.90;;;;;;5089875;28;20039;-76
2021/05/27 00:19:47;;;;;;;3.58;2.75;;;11.20;99.90;;;;;;5090609;28;20047;-75
2021/05/27 00:22:13;;;;;;;3.88;2.78;;;11.10;99.90;;;;;;5090624;28;20027;-75
2021/05/27 00:24:39;;;;;;;5.20;2.90;;;11.10;99.90;;;;;;5089162;28;20101;-74
2021/05/27 00:27:05;;;;;;;5.50;2.97;;;11.10;99.90;;;;;;5090802;28;20032;-75
2021/05/27 00:29:31;;;;;;;4.35;3.15;;;11.10;99.90;;;;;;5089928;28;20034;-75
2021/05/27 00:31:57;;;;;;;4.90;3.13;;;11.00;99.90;;;;;;5090544;28;20360;-75
2021/05/27 00:34:23;;;;;;;4.25;3.08;;;11.00;99.90;;;;;;5089926;28;20035;-75
2021/05/27 00:36:48;;;;;;;4.60;3.25;;;11.00;99.90;;;;;;5089600;28;20035;-75
2021/05/27 00:39:13;;;;;;;5.35;3.15;;;11.00;99.90;;;;;;5089242;28;20020;-75
2021/05/27 00:41:39;;;;;;;5.18;3.10;;;11.00;99.90;;;;;;5079106;28;20455;-75
2021/05/27 00:44:24;;;;;;;5.93;3.10;;;11.00;99.90;;;;;;5086774;28;20028;-75
2021/05/27 00:46:51;;;;;;;3.90;3.33;;;11.00;99.90;;;;;;5089625;28;20085;-75
2021/05/27 00:49:17;;;;;;;4.40;2.90;;;10.90;99.90;;;;;;5089960;28;20123;-75
2021/05/27 00:51:46;;;;;;;5.90;3.28;;;10.90;99.90;;;;;;5090002;28;20119;-75
2021/05/27 00:54:13;;;;;;;3.92;3.08;;;10.80;99.90;;;;;;5086400;28;20033;-75
2021/05/27 00:56:40;;;;;;;5.45;2.83;;;10.90;99.90;;;;;;5083750;28;20016;-75
2021/05/27 00:59:07;;;;;;;5.03;3.20;;;10.80;99.90;;;;;;5089217;28;20572;-75
2021/05/27 01:01:33;;;;;;;5.18;3.05;;;10.80;99.90;;;;;;5089725;28;20028;-74
2021/05/27 01:03:59;;;;;;;3.78;2.78;;;10.80;99.90;;;;;;5083335;28;20024;-75
2021/05/27 01:06:28;;;;;;;4.60;3.00;;;10.80;99.90;;;;;;5089171;28;20486;-75
2021/05/27 01:08:55;;;;;;;5.80;3.25;;;10.70;99.90;;;;;;5084549;28;20266;-75
2021/05/27 01:11:21;;;;;;;3.88;3.45;;;10.70;99.90;;;;;;5089167;28;20659;-76
2021/05/27 01:13:46;;;;;;;4.03;3.40;;;10.80;99.90;;;;;;5085715;28;20110;-74
2021/05/27 01:16:23;;;;;;;5.03;3.30;;;10.70;99.90;;;;;;5090172;28;20032;-74
2021/05/27 01:18:49;;;;;;;3.92;3.13;;;10.70;99.90;;;;;;5082635;28;20028;-75
2021/05/27 01:21:16;;;;;;;5.40;3.53;;;10.70;99.90;;;;;;5085493;28;20086;-75
2021/05/27 01:23:41;;;;;;;6.35;3.40;;;10.70;99.90;;;;;;5089562;28;20119;-75
2021/05/27 01:26:09;;;;;;;7.78;3.25;;;10.70;99.90;;;;;;5083217;28;20135;-75
2021/05/27 01:28:36;;;;;;;3.95;2.95;;;10.70;99.90;;;;;;5084865;28;20043;-75
2021/05/27 01:31:03;;;;;;;5.13;3.20;;;10.70;99.90;;;;;;5085326;28;20043;-75
2021/05/27 01:33:29;;;;;;;5.07;3.40;;;10.70;99.90;;;;;;5085677;28;20055;-75
2021/05/27 01:35:56;;;;;;;7.10;3.53;;;10.70;99.90;;;;;;5085073;28;20055;-76
2021/05/27 01:38:23;;;;;;;4.05;3.22;;;10.60;99.90;;;;;;5088309;28;20032;-75
2021/05/27 01:40:50;;;;;;;7.10;3.63;;;10.60;99.90;;;;;;5083446;28;20052;-75
2021/05/27 01:43:17;;;;;;;4.13;3.60;;;10.60;99.90;;;;;;5089394;28;20494;-74
2021/05/27 01:45:43;;;;;;;4.78;3.40;;;10.60;99.90;;;;;;5082382;28;20093;-75
2021/05/27 01:48:09;;;;;;;4.40;3.10;;;10.60;99.90;;;;;;5086624;28;20477;-75
2021/05/27 01:50:46;;;;;;;5.47;3.40;;;10.70;99.90;;;;;;5082761;28;20086;-75
2021/05/27 01:53:12;;;;;;;4.07;3.33;;;10.60;99.90;;;;;;5085529;28;20048;-75
2021/05/27 01:55:45;;;;;;;7.88;3.72;;;10.60;99.90;;;;;;5085019;28;20501;-75
2021/05/27 01:58:11;;;;;;;6.50;3.35;;;10.60;99.90;;;;;;5081288;28;20028;-75
2021/05/27 02:00:38;;;;;;;5.65;3.40;;;10.60;99.90;;;;;;5086661;28;20052;-74
2021/05/27 02:03:04;;;;;;;4.38;3.50;;;10.50;99.90;;;;;;5084989;28;20036;-76
2021/05/27 02:05:29;;;;;;;4.00;3.38;;;10.60;99.90;;;;;;5086182;28;20548;-75
2021/05/27 02:07:55;;;;;;;4.72;3.58;;;10.60;99.90;;;;;;5087733;28;20394;-75
2021/05/27 02:10:20;;;;;;;5.03;3.53;;;10.60;99.90;;;;;;5088297;28;20031;-76
2021/05/27 02:12:46;;;;;;;7.10;3.90;;;10.60;99.90;;;;;;5084307;28;20127;-75
2021/05/27 02:15:12;;;;;;;4.57;3.22;;;10.60;99.90;;;;;;5085507;28;20055;-75
2021/05/27 02:17:40;;;;;;;4.75;3.47;;;10.60;99.90;;;;;;5087730;28;20045;-76
2021/05/27 02:20:08;;;;;;;5.30;3.63;;;10.70;99.90;;;;;;5085118;28;20028;-74
2021/05/27 02:22:34;;;;;;;6.32;3.45;;;10.70;99.90;;;;;;5084228;28;20435;-74
2021/05/27 02:25:22;;;;;;;4.05;3.25;;;10.70;99.90;;;;;;5086108;28;20106;-74
2021/05/27 02:27:48;;;;;;;4.22;3.50;;;10.70;99.90;;;;;;5085880;28;20036;-74
2021/05/27 02:30:14;;;;;;;5.10;3.72;;;10.70;99.90;;;;;;5085359;28;20036;-74
2021/05/27 02:32:39;;;;;;;8.68;3.80;;;10.70;99.90;;;;;;5085656;28;20040;-74
2021/05/27 02:35:07;;;;;;;6.75;3.40;;;10.70;99.90;;;;;;5083465;28;20045;-74
2021/05/27 02:37:32;;;;;;;3.70;2.97;;;10.80;99.90;;;;;;5084619;28;20237;-75
2021/05/27 02:39:58;;;;;;;7.28;3.45;;;10.80;99.90;;;;;;5088108;28;20043;-74
2021/05/27 02:42:23;;;;;;;6.10;3.70;;;10.80;99.90;;;;;;5084513;28;20020;-74
2021/05/27 02:44:49;;;;;;;7.00;3.22;;;10.80;99.90;;;;;;5084560;28;20036;-74
2021/05/27 02:47:14;;;;;;;5.28;3.38;;;10.80;99.90;;;;;;5085492;28;20077;-74
2021/05/27 02:49:40;;;;;;;5.60;3.78;;;10.90;99.90;;;;;;5082257;28;20471;-75
2021/05/27 02:52:05;;;;;;;5.25;3.65;;;10.90;99.90;;;;;;5083084;28;20109;-74
2021/05/27 02:54:31;;;;;;;4.68;3.60;;;10.80;99.90;;;;;;5080884;28;20051;-74
2021/05/27 02:57:00;;;;;;;7.35;3.72;;;10.90;99.90;;;;;;5086122;28;20576;-74
2021/05/27 02:59:26;;;;;;;4.68;3.70;;;10.90;99.90;;;;;;5084511;28;20029;-74
2021/05/27 03:01:52;;;;;;;6.97;3.80;;;10.80;99.90;;;;;;5080797;28;20032;-75
2021/05/27 03:04:18;;;;;;;5.15;3.53;;;10.90;99.90;;;;;;5079371;28;20038;-74
2021/05/27 03:06:44;;;;;;;7.57;3.90;;;10.90;99.90;;;;;;5077201;28;20028;-74
2021/05/27 03:09:10;;;;;;;4.43;3.28;;;10.80;99.90;;;;;;5076387;28;20032;-74
2021/05/27 03:11:35;;;;;;;4.30;3.75;;;10.80;99.90;;;;;;5082805;28;20036;-74
2021/05/27 03:14:01;;;;;;;5.05;3.60;;;10.80;99.90;;;;;;5079986;28;20106;-74
2021/05/27 03:16:26;;;;;;;4.47;3.58;;;10.80;99.90;;;;;;5083431;28;20367;-73
2021/05/27 03:18:52;;;;;;;5.95;3.67;;;10.80;99.90;;;;;;5084994;28;20472;-75
2021/05/27 03:21:17;;;;;;;7.97;3.97;;;10.80;99.90;;;;;;5083197;28;20046;-74
2021/05/27 03:23:42;;;;;;;5.20;3.75;;;10.80;99.90;;;;;;5081923;28;20569;-74
2021/05/27 03:26:08;;;;;;;5.55;3.83;;;10.80;99.90;;;;;;5085719;28;20486;-74
2021/05/27 03:29:00;;;;;;;8.55;3.78;;;10.70;99.90;;;;;;5084707;28;20028;-75
2021/05/27 03:31:25;;;;;;;4.40;3.67;;;10.80;99.90;;;;;;5048633;28;20106;-74
2021/05/27 03:33:51;;;;;;;7.30;4.15;;;10.80;99.90;;;;;;5081582;28;20483;-74
2021/05/27 03:36:16;;;;;;;5.10;3.75;;;10.90;99.90;;;;;;5081723;28;20028;-74
2021/05/27 03:38:42;;;;;;;4.80;4.22;;;11.00;99.90;;;;;;5087260;28;20016;-74
2021/05/27 03:41:07;;;;;;;4.32;3.40;;;11.00;99.90;;;;;;5081543;28;20028;-74
2021/05/27 03:43:33;;;;;;;4.55;3.40;;;11.00;99.90;;;;;;5086493;28;20028;-74
2021/05/27 03:46:00;;;;;;;5.28;3.50;;;11.00;99.90;;;;;;5083744;28;20386;-75
2021/05/27 03:48:25;;;;;;;4.65;3.60;;;11.10;99.90;;;;;;5087294;28;20035;-75
2021/05/27 03:50:51;;;;;;;3.95;3.20;;;11.10;99.90;;;;;;5082789;28;20036;-75
2021/05/27 03:53:16;;;;;;;5.72;3.55;;;11.20;99.90;;;;;;5085509;28;20123;-75
2021/05/27 03:55:42;;;;;;;5.05;3.42;;;11.20;99.90;;;;;;5082327;28;20031;-75
2021/05/27 04:00:51;;;;;;;5.22;3.33;;;11.30;99.90;;;;;;5082447;28;20568;-75
2021/05/27 04:03:17;;;;;;;4.22;3.60;;;11.30;99.90;;;;;;5086406;28;20025;-75
2021/05/27 04:08:27;;;;;;;4.28;3.33;;;11.30;99.90;;;;;;5090457;28;20035;-75
2021/05/27 04:10:53;;;;;;;6.80;3.42;;;11.30;99.90;;;;;;5084774;28;20036;-75
2021/05/27 04:13:18;;;;;;;6.72;3.10;;;11.30;99.90;;;;;;5089304;28;20050;-75
2021/05/27 04:15:44;;;;;;;4.40;3.35;;;11.30;99.90;;;;;;5088191;28;20024;-75
2021/05/27 04:18:09;;;;;;;3.63;3.25;;;11.30;99.90;;;;;;5091464;28;20024;-76
2021/05/27 04:20:38;;;;;;;4.75;3.38;;;11.30;99.90;;;;;;5085787;28;20043;-77
2021/05/27 04:23:07;;;;;;;3.92;3.30;;;11.30;99.90;;;;;;5090342;28;20040;-76
2021/05/27 04:25:33;;;;;;;5.40;3.63;;;11.30;99.90;;;;;;5084906;28;20020;-76
2021/05/27 04:27:59;;;;;;;6.32;3.55;;;11.40;99.90;;;;;;5090507;28;20027;-76
2021/05/27 04:30:27;;;;;;;5.45;3.70;;;11.40;99.90;;;;;;5088298;28;20163;-76
2021/05/27 04:33:03;;;;;;;5.22;3.60;;;11.40;99.90;;;;;;5090405;28;20055;-76
2021/05/27 04:35:38;;;;;;;6.25;3.17;;;11.50;99.90;;;;;;5087247;28;20020;-76
2021/05/27 04:38:06;;;;;;;5.22;3.28;;;11.50;99.90;;;;;;5082013;28;20502;-76
2021/05/27 04:40:32;;;;;;;5.78;3.30;;;11.60;99.90;;;;;;5086634;28;20028;-77
2021/05/27 04:42:58;;;;;;;4.95;3.40;;;11.60;99.90;;;;;;5084934;28;20024;-75
2021/05/27 04:45:24;;;;;;;4.82;3.35;;;11.60;99.90;;;;;;5081347;28;20028;-74
2021/05/27 04:47:51;;;;;;;6.75;3.72;;;11.60;99.90;;;;;;5083133;28;20028;-74
2021/05/27 04:50:17;;;;;;;5.50;3.40;;;11.60;99.90;;;;;;5087888;28;20028;-75
2021/05/27 04:52:46;;;;;;;5.03;3.35;;;11.70;99.90;;;;;;5087147;28;20280;-72
2021/05/27 04:55:13;;;;;;;5.95;3.45;;;11.70;99.90;;;;;;5082716;28;20040;-73
2021/05/27 04:57:40;;;;;;;4.55;3.22;;;11.70;99.90;;;;;;5085210;28;20028;-73
2021/05/27 05:00:09;;;;;;;9.27;3.53;;;11.70;99.90;;;;;;5086164;28;20237;-74
2021/05/27 05:02:35;;;;;;;4.25;3.13;;;11.70;99.90;;;;;;5082267;28;20032;-72
2021/05/27 05:05:00;;;;;;;4.63;3.00;;;11.70;99.90;;;;;;5082877;28;20028;-74
2021/05/27 05:07:26;;;;;;;4.85;3.13;;;11.80;99.90;;;;;;5081955;28;20070;-71
2021/05/27 05:09:51;;;;;;;5.65;3.38;;;11.90;99.90;;;;;;5083893;28;20149;-71
2021/05/27 05:12:17;;;;;;;4.97;3.03;;;11.90;99.90;;;;;;5087472;28;20028;-70
2021/05/27 05:14:42;;;;;;;3.55;3.08;;;11.90;99.90;;;;;;5084825;28;20096;-71
2021/05/27 05:17:08;;;;;;;6.88;3.10;;;12.00;99.90;;;;;;5089076;28;20024;-72
2021/05/27 05:19:33;;;;;;;6.60;3.38;;;12.10;99.90;;;;;;5085489;28;20028;-71
2021/05/27 05:22:03;;;;;;;6.07;2.90;;;12.00;99.90;;;;;;5085359;28;20038;-71
2021/05/27 05:24:28;;;;;;;3.92;2.92;;;12.10;99.90;;;;;;5088889;28;20110;-70
2021/05/27 05:26:57;;;;;;;4.95;2.83;;;12.20;99.90;;;;;;5084027;28;20110;-70
2021/05/27 05:29:22;;;;;;;3.63;2.88;;;12.30;99.90;;;;;;5083494;28;20432;-69
2021/05/27 05:31:48;;;;;;;4.07;2.80;;;12.30;99.90;;;;;;5081467;28;20098;-71
2021/05/27 05:34:13;;;;;;;3.78;3.00;;;12.30;99.90;;;;;;5088577;28;20032;-70
2021/05/27 05:36:39;;;;;;;4.65;2.95;;;12.30;99.90;;;;;;5083315;28;20016;-71
2021/05/27 05:39:05;;;;;;;3.17;2.80;;;12.30;99.90;;;;;;5087066;28;20505;-69
2021/05/27 05:41:31;;;;;;;5.88;2.80;;;12.40;99.90;;;;;;5087313;28;20024;-69
2021/05/27 05:43:56;;;;;;;3.08;2.70;;;12.40;99.90;;;;;;5085551;28;20055;-69
2021/05/27 05:46:22;;;;;;;3.97;2.63;;;12.50;99.90;;;;;;5086580;28;20023;-69
2021/05/27 05:48:47;;;;;;;4.05;2.50;;;12.50;99.90;;;;;;5079749;28;20491;-69
2021/05/27 05:51:13;;;;;;;5.30;2.38;;;12.60;99.90;;;;;;5087202;28;20047;-69
2021/05/27 05:53:38;;;;;;;2.30;2.10;;;12.60;99.90;;;;;;5084392;28;20074;-69
2021/05/27 05:56:04;;;;;;;3.13;2.20;;;12.70;99.90;;;;;;5081602;28;20024;-69
2021/05/27 05:58:30;;;;;;;2.20;2.00;;;12.70;99.90;;;;;;5079666;28;20035;-71
2021/05/27 06:00:55;;;;;;;3.47;2.30;;;12.70;99.90;;;;;;5082336;28;20019;-74
2021/05/27 06:03:21;;;;;;;5.18;2.35;;;12.90;99.90;;;;;;5089008;28;20034;-72
2021/05/27 06:05:47;;;;;;;3.45;2.20;;;12.90;99.90;;;;;;5085951;28;20028;-73
2021/05/27 06:08:12;;;;;;;3.88;2.33;;;12.90;99.90;;;;;;5085428;28;20092;-72
2021/05/27 06:10:38;;;;;;;4.30;2.40;;;13.00;99.90;;;;;;5085177;28;20020;-73
2021/05/27 06:13:04;;;;;;;2.13;1.88;;;13.00;99.90;;;;;;5087708;28;20032;-72
2021/05/27 06:15:29;;;;;;;2.47;2.28;;;13.00;99.90;;;;;;5083317;28;20499;-73
2021/05/27 06:18:00;;;;;;;3.83;2.20;;;13.10;99.90;;;;;;5085404;28;20024;-72
2021/05/27 06:21:02;;;;;;;2.10;1.85;;;13.10;99.90;;;;;;5083870;28;20028;-73
2021/05/27 06:23:28;;;;;;;1.75;1.58;;;13.20;99.90;;;;;;5083113;28;20031;-73
2021/05/27 06:25:53;;;;;;;2.15;1.90;;;13.20;99.90;;;;;;5086505;28;20024;-72
2021/05/27 06:28:19;;;;;;;3.92;2.03;;;13.20;99.90;;;;;;5085663;28;20493;-75
2021/05/27 06:30:44;;;;;;;2.88;2.25;;;13.10;99.90;;;;;;5081982;28;20182;-72
2021/05/27 06:33:10;;;;;;;2.35;2.10;;;13.20;99.90;;;;;;5087523;28;20478;-72
2021/05/27 06:38:59;;;;;;;4.78;2.10;;;13.40;99.90;;;;;;5064125;28;20035;-73
2021/05/27 06:41:25;;;;;;;2.47;2.10;;;13.40;99.90;;;;;;5085634;28;20032;-71
2021/05/27 06:43:51;;;;;;;6.10;2.00;;;13.50;99.90;;;;;;5088225;28;20489;-72
2021/05/27 06:46:19;;;;;;;1.83;1.67;;;13.60;99.90;;;;;;5080167;28;20115;-72
2021/05/27 06:48:44;;;;;;;2.22;1.85;;;13.60;99.90;;;;;;5085498;28;20034;-72
2021/05/27 06:51:10;;;;;;;2.22;2.03;;;13.70;99.90;;;;;;5086106;28;20111;-72
2021/05/27 06:53:35;;;;;;;2.50;2.08;;;13.70;99.90;;;;;;5085139;28;20051;-74
2021/05/27 06:56:02;;;;;;;3.67;2.05;;;13.70;99.90;;;;;;5080638;28;20168;-73
2021/05/27 06:58:27;;;;;;;2.97;2.15;;;13.70;99.90;;;;;;5074368;28;20039;-72
2021/05/27 07:00:53;;;;;;;5.72;2.17;;;13.80;99.90;;;;;;5080081;28;20534;-72
2021/05/27 07:03:21;;;;;;;3.40;2.22;;;13.80;99.90;;;;;;5088755;28;20059;-73
2021/05/27 07:05:47;;;;;;;2.50;2.20;;;13.80;99.90;;;;;;5088127;28;20017;-72
2021/05/27 07:08:12;;;;;;;2.40;2.20;;;13.80;99.20;;;;;;5087499;28;20115;-72
2021/05/27 07:10:39;;;;;;;2.42;2.10;;;13.70;99.60;;;;;;5080689;28;20134;-72
2021/05/27 07:13:10;;;;;;;3.00;2.20;;;13.70;99.90;;;;;;5088059;28;20032;-72
2021/05/27 07:15:37;;;;;;;3.30;2.35;;;13.70;99.60;;;;;;5087469;28;20027;-73
2021/05/27 07:18:03;;;;;;;3.25;2.35;;;13.70;98.90;;;;;;5083958;28;20032;-73
2021/05/27 07:20:28;;;;;;;3.92;2.13;;;13.70;99.50;;;;;;5084880;28;20024;-73
2021/05/27 07:22:55;;;;;;;2.55;2.10;;;13.70;99.70;;;;;;5085429;28;20081;-73
2021/05/27 07:25:23;;;;;;;5.03;2.30;;;13.70;99.70;;;;;;5085507;28;20047;-73
2021/05/27 07:27:50;;;;;;;2.17;1.95;;;13.70;99.70;;;;;;5083544;28;20111;-72
2021/05/27 07:30:16;;;;;;;3.35;2.30;;;13.50;99.70;;;;;;5085724;28;20028;-73
2021/05/27 07:32:41;;;;;;;2.83;2.28;;;13.50;99.90;;;;;;5084831;28;20043;-74
2021/05/27 07:35:08;;;;;;;5.18;1.65;;;13.40;99.90;;;;;;5080592;28;20024;-73
2021/05/27 07:37:33;;;;;;;3.03;1.75;;;13.30;99.90;;;;;;5085012;28;20020;-73
2021/05/27 07:39:59;;;;;;;2.15;1.63;;;13.40;99.90;;;;;;5091865;28;20470;-73
2021/05/27 07:42:25;;;;;;;2.15;1.67;;;13.40;99.90;;;;;;5087449;28;20032;-74
2021/05/27 07:44:51;;;;;;;1.60;1.50;;;13.60;99.90;;;;;;5091130;28;20031;-73
2021/05/27 07:47:16;;;;;;;3.83;1.50;;;13.70;99.90;;;;;;5086593;28;20378;-73
2021/05/27 07:49:42;;;;;;;3.30;1.70;;;13.80;99.90;;;;;;5091644;28;20039;-74
2021/05/27 07:52:07;;;;;;;1.50;1.40;;;13.90;99.60;;;;;;5091364;28;20039;-75
2021/05/27 07:54:33;;;;;;;1.48;1.38;;;14.10;98.40;;;;;;5091777;28;20031;-75
2021/05/27 07:56:59;;;;;;;1.77;1.45;;;14.10;97.70;;;;;;5089687;28;20039;-74
2021/05/27 07:59:25;;;;;;;2.22;1.15;;;14.10;97.50;;;;;;5091090;28;20106;-74
2021/05/27 08:01:50;;;;;;;1.70;1.40;;;14.00;96.80;;;;;;5089355;28;20024;-77
2021/05/27 08:04:19;;;;;;;2.33;1.65;;;14.00;96.90;;;;;;5086411;28;20032;-82
2021/05/27 08:06:45;;;;;;;1.30;1.20;;;14.00;96.80;;;;;;5079934;28;20122;-79
2021/05/27 08:09:11;;;;;;;3.88;1.50;;;13.90;97.30;;;;;;5086730;28;20178;-75
2021/05/27 08:11:41;;;;;;;1.52;1.33;;;13.80;97.30;;;;;;5085301;28;20495;-75
2021/05/27 08:14:07;;;;;;;1.50;1.30;;;13.70;97.50;;;;;;5086436;28;20021;-75
2021/05/27 08:16:32;;;;;;;1.42;1.33;;;13.70;98.00;;;;;;5089580;28;20034;-74
2021/05/27 08:18:58;;;;;;;1.40;1.30;;;13.90;97.60;;;;;;5091068;28;20390;-75
2021/05/27 08:21:25;;;;;;;1.50;1.17;;;13.90;96.70;;;;;;5091421;28;20402;-75
2021/05/27 08:23:50;;;;;;;2.05;1.45;;;14.00;96.40;;;;;;5091073;28;20031;-74
2021/05/27 08:26:16;;;;;;;1.98;1.23;;;14.10;96.10;;;;;;5088624;28;20032;-74
2021/05/27 08:28:41;;;;;;;1.20;1.10;;;14.30;95.40;;;;;;5091289;28;20062;-75
2021/05/27 08:31:07;;;;;;;1.67;1.45;;;14.40;95.30;;;;;;5088697;28;20479;-75
2021/05/27 08:33:32;;;;;;;1.45;1.33;;;14.30;95.50;;;;;;5090542;28;20020;-74
2021/05/27 08:35:58;;;;;;;2.75;1.40;;;14.30;95.20;;;;;;5090345;28;20529;-74
2021/05/27 08:38:24;;;;;;;2.65;1.50;;;14.10;96.30;;;;;;5088068;28;20038;-75
2021/05/27 08:40:51;;;;;;;2.00;1.60;;;14.10;97.30;;;;;;5085560;28;20039;-76
2021/05/27 08:43:20;;;;;;;1.75;1.60;;;14.00;99.00;;;;;;5090879;28;20020;-74
2021/05/27 08:45:47;;;;;;;2.15;1.63;;;13.90;99.40;;;;;;5090053;28;20038;-75
2021/05/27 08:48:15;;;;;;;2.33;1.90;;;14.00;99.90;;;;;;5090923;28;20016;-74
2021/05/27 08:50:44;;;;;;;2.22;1.58;;;14.00;99.90;;;;;;5087460;28;20031;-75
2021/05/27 08:53:10;;;;;;;2.38;1.60;;;14.00;99.90;;;;;;5088149;28;20056;-75
2021/05/27 08:55:36;;;;;;;2.83;1.80;;;13.90;99.90;;;;;;5089954;28;20027;-76
2021/05/27 08:58:02;;;;;;;2.50;2.00;;;13.90;99.90;;;;;;5089917;28;20582;-74
2021/05/27 09:00:28;;;;;;;2.30;1.92;;;13.90;99.90;;;;;;5090330;28;20020;-74
2021/05/27 09:03:00;;;;;;;2.13;1.88;;;13.80;99.90;;;;;;5090258;28;20035;-74
2021/05/27 09:05:27;;;;;;;3.85;1.67;;;13.80;99.90;;;;;;5089431;28;20632;-75
2021/05/27 09:07:53;;;;;;;1.88;1.50;;;13.70;99.90;;;;;;5089724;28;20055;-75
2021/05/27 09:10:20;;;;;;;1.88;1.63;;;13.70;99.90;;;;;;5090086;28;20052;-75
2021/05/27 09:12:45;;;;;;;3.97;1.90;;;13.70;99.90;;;;;;5089709;28;20483;-74
2021/05/27 09:15:17;;;;;;;2.63;1.90;;;13.70;99.90;;;;;;5089830;28;20020;-75
2021/05/27 09:17:44;;;;;;;6.32;1.90;;;13.80;99.90;;;;;;5089929;28;20502;-76
2021/05/27 09:20:27;;;;;;;1.88;1.70;;;13.90;99.90;;;;;;5089613;28;20032;-76
2021/05/27 09:23:14;;;;;;;3.35;2.00;;;13.90;99.90;;;;;;5089808;28;20036;-75
2021/05/27 09:25:47;;;;;;;2.55;1.80;;;14.00;99.90;;;;;;5089359;28;20036;-76
2021/05/27 09:28:24;;;;;;;3.17;1.92;;;14.10;99.90;;;;;;5089703;28;20089;-75
2021/05/27 09:30:54;;;;;;;2.47;1.92;;;14.20;99.90;;;;;;5089124;28;20020;-76
2021/05/27 09:33:29;;;;;;;2.20;2.00;;;14.50;99.90;;;;;;5089953;28;20032;-76
2021/05/27 09:36:10;;;;;;;2.60;1.95;;;14.90;99.90;;;;;;5087490;28;20084;-74
2021/05/27 09:38:40;;;;;;;1.90;1.70;;;15.30;99.90;;;;;;5089251;28;20085;-75
2021/05/27 09:41:25;;;;;;;1.67;1.57;;;15.60;99.90;;;;;;5088056;28;20063;-75
2021/05/27 09:44:06;;;;;;;2.03;1.65;;;15.70;99.90;;;;;;5088775;28;20069;-76
2021/05/27 09:46:52;;;;;;;1.53;1.33;;;15.80;99.20;;;;;;5083470;28;20036;-75
2021/05/27 09:49:23;;;;;;;2.85;1.48;;;15.70;98.30;;;;;;5089155;28;20390;-76
2021/05/27 09:51:52;;;;;;;1.50;1.40;;;15.60;99.20;;;;;;5088713;28;20028;-75
2021/05/27 09:54:18;;;;;;;1.73;1.30;;;15.30;96.70;;;;;;5089152;28;20057;-76
2021/05/27 09:56:44;;;;;;;2.13;1.20;;;15.20;96.10;;;;;;5088711;28;20016;-75
2021/05/27 09:59:22;;;;;;;2.00;1.40;;;15.30;98.10;;;;;;5089406;28;20352;-75
2021/05/27 10:02:12;;;;;;;2.72;1.30;;;15.60;96.30;;;;;;5087877;28;20059;-76
2021/05/27 10:04:57;;;;;;;1.20;0.95;;;16.00;92.90;;;;;;5088714;28;20032;-76
2021/05/27 10:07:33;;;;;;;0.95;0.70;;;16.10;91.00;;;;;;5088960;28;20055;-75
2021/05/27 10:10:00;;;;;;;1.55;0.82;;;16.00;89.20;;;;;;5089144;28;20028;-76
2021/05/27 10:12:25;;;;;;;0.88;0.88;;;16.10;86.10;;;;;;5088223;28;20057;-76
2021/05/27 10:14:52;;;;;;;0.90;0.77;;;16.20;84.70;;;;;;5088917;28;20112;-75
2021/05/27 10:17:17;;;;;;;1.13;0.80;;;16.40;82.00;;;;;;5088241;28;20355;-75
2021/05/27 10:19:43;;;;;;;0.70;0.65;;;16.50;82.30;;;;;;5088707;28;20034;-75
2021/05/27 10:22:09;;;;;;;0.90;0.80;;;16.60;80.00;;;;;;5088460;28;20110;-76
2021/05/27 10:24:35;;;;;;;0.50;0.50;;;16.60;80.80;;;;;;5088856;28;20028;-75
2021/05/27 10:27:00;;;;;;;0.70;0.60;;;16.60;79.00;;;;;;5088648;28;20051;-75
2021/05/27 10:29:28;;;;;;;0.55;0.50;;;16.70;80.60;;;;;;5088648;28;20696;-76
2021/05/27 10:31:55;;;;;;;1.05;0.70;;;16.90;75.00;;;;;;5087874;28;20237;-76
2021/05/27 10:34:42;;;;;;;1.77;0.70;;;16.80;76.10;;;;;;5088835;28;20567;-75
2021/05/27 10:37:08;;;;;;;0.65;0.60;;;16.80;75.70;;;;;;5087806;28;20031;-75
2021/05/27 10:39:34;;;;;;;0.65;0.65;;;16.70;76.40;;;;;;5088397;28;20044;-75
2021/05/27 10:41:59;;;;;;;0.57;0.57;;;16.50;74.70;;;;;;5088009;28;20122;-76
2021/05/27 10:44:25;;;;;;;0.75;0.70;;;16.50;74.60;;;;;;5088627;28;20085;-76
2021/05/27 10:46:56;;;;;;;0.63;0.60;;;16.50;73.70;;;;;;5075017;28;20073;-76
2021/05/27 10:49:44;;;;;;;0.68;0.68;;;16.50;73.80;;;;;;5088288;28;20045;-75
2021/05/27 10:52:29;;;;;;;1.63;0.80;;;16.50;72.60;;;;;;5086863;28;20071;-75
2021/05/27 10:54:55;;;;;;;0.65;0.65;;;16.70;73.40;;;;;;5085843;28;20020;-75
2021/05/27 10:57:38;;;;;;;1.77;0.88;;;16.70;70.40;;;;;;5086143;28;20528;-76
2021/05/27 11:00:25;;;;;;;0.70;0.70;;;16.70;71.90;;;;;;5086324;28;20029;-76
2021/05/27 11:02:51;;;;;;;0.65;0.60;;;16.50;72.20;;;;;;5087655;28;20028;-78
2021/05/27 11:05:22;;;;;;;0.70;0.70;;;16.50;71.50;;;;;;5087201;28;20035;-78
2021/05/27 11:08:17;;;;;;;;;;;16.40;71.60;;;;;;5086137;28;20032;-75
2021/05/27 11:10:42;;;;;;;0.60;0.60;;;16.60;72.00;;;;;;5087519;28;19915;-78
2021/05/27 11:13:08;;;;;;;0.73;0.70;;;16.80;72.00;;;;;;5090163;28;20028;-75
2021/05/27 11:15:33;;;;;;;0.93;0.70;;;17.10;73.40;;;;;;5092455;28;20024;-84
2021/05/27 11:18:07;;;;;;;0.60;0.60;;;17.40;70.50;;;;;;5090981;28;20467;-79
2021/05/27 11:20:34;;;;;;;0.68;0.60;;;17.60;68.60;;;;;;5086562;28;20095;-79
2021/05/27 11:23:20;;;;;;;1.48;0.70;;;17.80;69.20;;;;;;5090825;28;20466;-80
2021/05/27 11:25:46;;;;;;;0.57;0.57;;;17.80;67.80;;;;;;5089371;28;20025;-78
2021/05/27 11:28:13;;;;;;;0.85;0.80;;;17.90;67.50;;;;;;5091836;28;20460;-78
2021/05/27 11:30:41;;;;;;;1.92;0.75;;;17.90;69.70;;;;;;5090131;28;20048;-78
2021/05/27 11:33:30;;;;;;;0.70;0.70;;;17.80;69.00;;;;;;5092172;28;20032;-80
2021/05/27 11:36:09;;;;;;;0.60;0.60;;;17.70;70.60;;;;;;5078657;28;20522;-82
2021/05/27 11:38:36;;;;;;;2.05;0.60;;;18.10;70.60;;;;;;5092303;28;20504;-79
2021/05/27 11:41:06;;;;;;;0.50;0.50;;;18.80;65.80;;;;;;5089282;28;20028;-80
2021/05/27 11:43:44;;;;;;;1.02;0.45;;;19.10;64.40;;;;;;5091216;28;20512;-79
2021/05/27 11:46:25;;;;;;;0.73;0.68;;;18.90;62.90;;;;;;5081921;28;20475;-78
2021/05/27 11:51:27;;;;;;;0.95;0.80;;;18.10;66.30;;;;;;5090999;28;20406;-79
2021/05/27 11:54:00;;;;;;;0.95;0.60;;;17.70;68.90;;;;;;5090586;28;20119;-79
2021/05/27 11:56:28;;;;;;;0.40;0.40;;;17.50;69.80;;;;;;5081732;28;20032;-76
2021/05/27 11:58:54;;;;;;;0.50;0.50;;;17.60;71.60;;;;;;5085939;28;20131;-80
2021/05/27 12:01:32;;;;;;;0.60;0.60;;;18.50;69.80;;;;;;5089477;28;20533;-78
2021/05/27 12:04:02;;;;;;;0.57;0.50;;;19.20;66.00;;;;;;5091464;28;20020;-77
2021/05/27 12:06:28;;;;;;;2.67;0.65;;;18.80;66.00;;;;;;5091632;28;20545;-78
2021/05/27 12:08:54;;;;;;;0.80;0.60;;;18.50;67.50;;;;;;5090496;28;20055;-83
2021/05/27 12:12:08;;;;;;;1.35;0.68;;;18.60;69.50;;;;;;5090048;28;20047;-78
2021/05/27 12:14:56;;;;;;;0.50;0.40;;;20.40;64.30;;;;;;5088402;28;20028;-79
2021/05/27 12:17:30;;;;;;;0.32;0.32;;;21.70;57.30;;;;;;5090435;28;20024;-76
2021/05/27 12:20:07;;;;;;;0.30;0.30;;;22.80;54.70;;;;;;5090972;28;20245;-75
2021/05/27 12:22:56;;;;;;;0.65;0.30;;;23.50;51.90;;;;;;5088243;28;20462;-75
2021/05/27 12:25:24;;;;;;;0.50;0.40;;;24.10;50.60;;;;;;5084868;28;20051;-75
2021/05/27 12:27:53;;;;;;;0.30;0.30;;;25.30;47.70;;;;;;5086977;28;20436;-75
2021/05/27 12:30:23;;;;;;;0.75;0.43;;;25.60;46.70;;;;;;5090893;28;20028;-74
2021/05/27 12:32:50;;;;;;;1.02;0.40;;;24.90;46.60;;;;;;5084194;28;20032;-77
2021/05/27 12:35:21;;;;;;;0.40;0.40;;;24.90;47.30;;;;;;5089629;28;20055;-74
2021/05/27 12:37:48;;;;;;;;;;;24.90;47.80;;;;;;5089931;28;20027;-74
2021/05/27 12:40:32;;;;;;;0.77;0.40;;;25.30;47.20;;;;;;5090160;28;19912;-77
2021/05/27 12:43:00;;;;;;;0.68;0.68;;;25.20;46.10;;;;;;5088196;28;20067;-75
2021/05/27 12:45:36;;;;;;;2.90;0.68;;;23.80;49.50;;;;;;5086796;28;20064;-77
2021/05/27 12:48:12;;;;;;;2.50;0.60;;;22.80;53.30;;;;;;5088829;28;20028;-77
2021/05/27 12:50:44;;;;;;;0.65;0.50;;;21.70;55.50;;;;;;5089659;28;20048;-76
2021/05/27 12:53:39;;;;;;;0.55;0.55;;;20.50;57.30;;;;;;5087886;28;20063;-76
2021/05/27 12:56:18;;;;;;;4.57;0.95;;;19.50;59.40;;;;;;5077554;28;20070;-77
2021/05/27 12:58:50;;;;;;;1.92;0.60;;;18.60;62.70;;;;;;5085368;28;20020;-77
2021/05/27 13:01:31;;;;;;;0.60;0.60;;;18.20;66.10;;;;;;5085325;28;20565;-76
2021/05/27 13:03:57;;;;;;;3.97;0.50;;;17.90;67.30;;;;;;5085491;28;20039;-76
2021/05/27 13:06:34;;;;;;;15.05;1.73;;;17.50;69.00;;;;;;5082957;28;20028;-76